Toyofujimaru No.2 — 7JDI — position and weather

sailwx.info

Track history (hours):
 
Tides and Currents Weather Stations Pressure Air Temp Water Temp Dewpoint Dewpoint Depression Visibility Wind Speed Wind Dir Waves Ship Positions

Toyofujimaru No.2

Last reported at 2015-Aug-28 01:24 UTC. Time now 2015-Aug-28 02:22 UTC.
Position N 35°36' E 140°05'.

Length 165 m; draft 5.9 m.

Type: Cargo ship. MMSI: 432667000.

Date/timePositionNaut miles runAvg speedWind from/ knotsBaromVisibWave heightAir tempDewpointWater temp
2015-Aug-28 01:24N 35°36' E 140°05'0 0.1
2015-Aug-28 00:30N 35°36' E 140°05'0 0.1
2015-Aug-27 23:33N 35°36' E 140°05'2 1.8
2015-Aug-27 22:33N 35°35' E 140°03'1212.5
2015-Aug-27 21:33N 35°28' E 139°51'1211.9
2015-Aug-27 20:33N 35°17' E 139°46'1312.7
2015-Aug-27 19:33N 35°04' E 139°43'67 1.5
2015-Aug-25 22:12N 34°30' E 138°33'4717.4
2015-Aug-25 19:31N 34°40' E 139°28'1919.6
2015-Aug-25 18:33N 34°49' E 139°49'1919.5
2015-Aug-25 17:33N 34°58' E 140°09'1717.3
2015-Aug-25 16:33N 35°08' E 140°27'1716.2
2015-Aug-25 15:32N 35°21' E 140°39'1818.0
2015-Aug-25 14:33N 35°35' E 140°51'1918.5
2015-Aug-25 13:31N 35°54' E 140°59'2218.7
2015-Aug-25 12:19N 36°16' E 141°02'3 0.1
2015-Aug-23 17:06N 36°12' E 141°02'1717.3
2015-Aug-23 16:08N 35°56' E 140°59'916.4
2015-Aug-23 15:33N 35°47' E 140°57'1616.0
2015-Aug-23 14:33N 35°32' E 140°50'1717.1
2015-Aug-23 13:33N 35°17' E 140°39'2018.6
2015-Aug-23 12:28N 35°02' E 140°23'1718.7
2015-Aug-23 11:34N 34°54' E 140°04'1917.9
2015-Aug-23 10:31N 34°46' E 139°43'1313.5
2015-Aug-23 09:33N 34°59' E 139°40'1817.6
2015-Aug-23 08:33N 35°16' E 139°46'1211.9
2015-Aug-23 07:33N 35°27' E 139°47'3 3.1
2015-Aug-23 06:33N 35°30' E 139°46'0 0.0
2015-Aug-23 05:32N 35°30' E 139°46'0 0.0
2015-Aug-23 04:29N 35°30' E 139°46'0 0.0
2015-Aug-23 03:29N 35°30' E 139°46'4 4.0
2015-Aug-23 02:33N 35°28' E 139°42'5 5.3
2015-Aug-23 01:33N 35°23' E 139°39'0 0.0
2015-Aug-23 00:34N 35°23' E 139°39'0 0.0
2015-Aug-22 23:33N 35°23' E 139°39'0 0.0
2015-Aug-22 22:33N 35°23' E 139°39'0 0.0
2015-Aug-22 21:33N 35°23' E 139°39'3 3.2
2015-Aug-22 20:34N 35°22' E 139°42'1110.6
2015-Aug-22 19:33N 35°12' E 139°47'1615.9
2015-Aug-22 18:33N 34°56' E 139°41'1615.6
2015-Aug-22 17:33N 34°41' E 139°37'1917.2
2015-Aug-22 16:26N 34°34' E 139°16'3816.9
2015-Aug-22 14:10N 34°25' E 138°30'  
Track history (hours):
 
Tides and Currents Weather Stations Pressure Air Temp Water Temp Dewpoint Dewpoint Depression Visibility Wind Speed Wind Dir Waves Ship Positions

Toyofujimaru No.2

Last reported at 2015-Aug-28 01:24 UTC. Time now 2015-Aug-28 02:22 UTC.
Position N 35°36' E 140°05'.

Length 165 m; draft 5.9 m.

Type: Cargo ship. MMSI: 432667000.

Date/timePositionNaut miles runAvg speedWind from/ knotsBaromVisibWave heightAir tempDewpointWater temp
2015-Aug-28 01:24N 35°36' E 140°05'0 0.1
2015-Aug-28 00:30N 35°36' E 140°05'0 0.1
2015-Aug-27 23:33N 35°36' E 140°05'2 1.8
2015-Aug-27 22:33N 35°35' E 140°03'1212.5
2015-Aug-27 21:33N 35°28' E 139°51'1211.9
2015-Aug-27 20:33N 35°17' E 139°46'1312.7
2015-Aug-27 19:33N 35°04' E 139°43'67 1.5
2015-Aug-25 22:12N 34°30' E 138°33'4717.4
2015-Aug-25 19:31N 34°40' E 139°28'1919.6
2015-Aug-25 18:33N 34°49' E 139°49'1919.5
2015-Aug-25 17:33N 34°58' E 140°09'1717.3
2015-Aug-25 16:33N 35°08' E 140°27'1716.2
2015-Aug-25 15:32N 35°21' E 140°39'1818.0
2015-Aug-25 14:33N 35°35' E 140°51'1918.5
2015-Aug-25 13:31N 35°54' E 140°59'2218.7
2015-Aug-25 12:19N 36°16' E 141°02'3 0.1
2015-Aug-23 17:06N 36°12' E 141°02'1717.3
2015-Aug-23 16:08N 35°56' E 140°59'916.4
2015-Aug-23 15:33N 35°47' E 140°57'1616.0
2015-Aug-23 14:33N 35°32' E 140°50'1717.1
2015-Aug-23 13:33N 35°17' E 140°39'2018.6
2015-Aug-23 12:28N 35°02' E 140°23'1718.7
2015-Aug-23 11:34N 34°54' E 140°04'1917.9
2015-Aug-23 10:31N 34°46' E 139°43'1313.5
2015-Aug-23 09:33N 34°59' E 139°40'1817.6
2015-Aug-23 08:33N 35°16' E 139°46'1211.9
2015-Aug-23 07:33N 35°27' E 139°47'3 3.1
2015-Aug-23 06:33N 35°30' E 139°46'0 0.0
2015-Aug-23 05:32N 35°30' E 139°46'0 0.0
2015-Aug-23 04:29N 35°30' E 139°46'0 0.0
2015-Aug-23 03:29N 35°30' E 139°46'4 4.0
2015-Aug-23 02:33N 35°28' E 139°42'5 5.3
2015-Aug-23 01:33N 35°23' E 139°39'0 0.0
2015-Aug-23 00:34N 35°23' E 139°39'0 0.0
2015-Aug-22 23:33N 35°23' E 139°39'0 0.0
2015-Aug-22 22:33N 35°23' E 139°39'0 0.0
2015-Aug-22 21:33N 35°23' E 139°39'3 3.2
2015-Aug-22 20:34N 35°22' E 139°42'1110.6
2015-Aug-22 19:33N 35°12' E 139°47'1615.9
2015-Aug-22 18:33N 34°56' E 139°41'1615.6
2015-Aug-22 17:33N 34°41' E 139°37'1917.2
2015-Aug-22 16:26N 34°34' E 139°16'3816.9
2015-Aug-22 14:10N 34°25' E 138°30'  

Dump ship's entire track history